Nearby METAR Reports

 

KSYN - Stanton, Minnesota, USA
Distance from station: NW 20mi, 33km
Updated: Tue, 22-Sep-2020 10:35pm CDT
Clear
Clear
 Wind from SSW
Wind: SSW 5 mph , 7 km/h
Temperature: 64°F , 18°C
Dew Point: 55°F , 13°C
Humidity: 73%
Barometer: 30.00 inHg , 1015.9 hPa
Clouds: Clear
Visibility: 10 miles , 16 km
2020/09/23 03:35 KSYN 230335Z AUTO 21004KT 10SM CLR 18/13 A3000 RMK AO2 T01760133
KTOB - Dodge Center, Minnesota, USA
Distance from station: SSW 21mi, 34km
Updated: Tue, 22-Sep-2020 10:35pm CDT
Clear
Clear
 Wind from SSE
Wind: SSE 7 mph , 11 km/h
Temperature: 61°F , 16°C
Dew Point: 54°F , 12°C
Humidity: 77%
Barometer: 30.04 inHg , 1017.3 hPa
Clouds: Clear
Visibility: 10 miles , 16 km
2020/09/23 03:35 KTOB 230335Z AUTO 16006KT 10SM CLR 16/12 A3004 RMK AO2
K9MN - St Mary Hospital, Minnesota, USA
Distance from station: SSE 22mi, 35km
Updated: Tue, 22-Sep-2020 10:35pm CDT
Clear
Clear
 Wind from SSE
Wind: SSE 6 mph , 9 km/h
Temperature: 68°F , 20°C
Dew Point: 54°F , 12°C
Humidity: 60%
Barometer: 30.05 inHg , 1017.6 hPa
Clouds: Clear
Visibility: 10 miles , 16 km
2020/09/23 03:35 K9MN 230335Z AUTO 16005KT 10SM CLR 20/12 A3005 RMK AO1 T01980122
 
KRGK - Red Wing, Minnesota, USA
Distance from station: NNE 22mi, 35km
Updated: Tue, 22-Sep-2020 10:35pm CDT
Clear
Clear
 Wind from calm
Wind: Calm
Temperature: 61°F , 16°C
Dew Point: 57°F , 14°C
Humidity: 88%
Barometer: 30.01 inHg , 1016.3 hPa
Clouds: Clear
Visibility: 10 miles , 16 km
2020/09/23 03:35 KRGK 230335Z AUTO 00000KT 10SM CLR 16/14 A3001 RMK AO2
KRST - Rochester, Minnesota, USA
Distance from station: SSE 29mi, 47km
Updated: Tue, 22-Sep-2020 9:54pm CDT
Clear
Clear
 Wind from S
Wind: S 6 mph , 9 km/h
Temperature: 61°F , 16°C
Dew Point: 55°F , 13°C
Humidity: 83%
Barometer: 30.05 inHg , 1017.6 hPa
Clouds: Clear
Visibility: 10 miles , 16 km
2020/09/23 02:54 KRST 230254Z 17005KT 10SM CLR 16/13 A3005 RMK AO2 SLP172 T01610128 51003 $
KOWA - Owatonna, Minnesota, USA
Distance from station: WSW 31mi, 50km
Updated: Tue, 22-Sep-2020 10:33pm CDT
Clear
Clear
 Wind from S
Wind: S 8 mph , 13 km/h
Temperature: 68°F , 20°C
Dew Point: 55°F , 13°C
Humidity: 64%
Barometer: 30.02 inHg , 1016.6 hPa
Clouds: Clear
Visibility: 10 miles , 16 km
2020/09/23 03:33 KOWA 230333Z AUTO 17007KT 10SM CLR 20/13 A3002 RMK AO2
 
KFBL - Faribault Muni, Minnesota, USA
Distance from station: W 32mi, 51km
Updated: Tue, 22-Sep-2020 10:35pm CDT
Clear
Clear
 Wind from S
Wind: S 5 mph , 7 km/h
Temperature: 66°F , 19°C
Dew Point: 55°F , 13°C
Humidity: 68%
Barometer: 30.02 inHg , 1016.6 hPa
Clouds: Clear
Visibility: 10 miles , 16 km
2020/09/23 03:35 KFBL 230335Z AUTO 17004KT 10SM CLR 19/13 A3002 RMK AO2
KSGS - South St Paul, Minnesota, USA
Distance from station: NNW 43mi, 69km
Updated: Tue, 22-Sep-2020 10:35pm CDT
Clear
Clear
 Wind from calm
Wind: Calm
Temperature: 64°F , 18°C
Dew Point: 61°F , 16°C
Humidity: 88%
Barometer: 30.00 inHg , 1015.9 hPa
Clouds: Clear
Visibility: 10 miles , 16 km
2020/09/23 03:35 KSGS 230335Z AUTO 00000KT 10SM CLR 18/16 A3000 RMK AO2 T01800160
KAUM - Austin Muni, Minnesota, USA
Distance from station: SSW 46mi, 73km
Updated: Tue, 22-Sep-2020 10:35pm CDT
Clear
Clear
 Wind from calm
Wind: Calm
Temperature: 63°F , 17°C
Dew Point: 55°F , 13°C
Humidity: 77%
Barometer: 30.05 inHg , 1017.6 hPa
Clouds: Clear
Visibility: 10 miles , 16 km
2020/09/23 03:35 KAUM 230335Z AUTO 00000KT 10SM CLR 17/13 A3005 RMK AO2
 
KACQ - Waseca, Minnesota, USA
Distance from station: WSW 46mi, 75km
Updated: Tue, 22-Sep-2020 10:35pm CDT
Clear
Clear
 Wind from SSE
Wind: SSE 6 mph , 9 km/h
Temperature: 63°F , 17°C
Dew Point: 54°F , 12°C
Humidity: 73%
Barometer: 30.04 inHg , 1017.3 hPa
Clouds: Clear
Visibility: 10 miles , 16 km
2020/09/23 03:35 KACQ 230335Z AUTO 16005KT 10SM CLR 17/12 A3004 RMK AO2
KSTP - St. Paul, Minnesota, USA
Distance from station: NNW 47mi, 76km
Updated: Tue, 22-Sep-2020 9:53pm CDT
Clear
Clear
 Wind from calm
Wind: Calm
Temperature: 64°F , 18°C
Dew Point: 61°F , 16°C
Humidity: 88%
Barometer: 30.00 inHg , 1015.9 hPa
Clouds: Clear
Visibility: 9 miles , 14 km
2020/09/23 02:53 KSTP 230253Z AUTO 00000KT 9SM CLR 18/16 A3000 RMK AO2 SLP155 T01780156 50002 $
KMSP - Minneapolis, Minnesota, USA
Distance from station: NW 49mi, 78km
Updated: Tue, 22-Sep-2020 9:53pm CDT
Clear
Clear
 Wind from SSE
Wind: SSE 6 mph , 9 km/h
Temperature: 72°F , 22°C
Dew Point: 57°F , 14°C
Humidity: 61%
Barometer: 29.99 inHg , 1015.6 hPa
Clouds: Clear
Visibility: 10 miles , 16 km
2020/09/23 02:53 KMSP 230253Z 15005KT 10SM CLR 22/14 A2999 RMK AO2 SLP154 T02170144 50000